Time;durP1;ratioP1;P1;durP2;ratioP2;P2;SDS_P1;SDS_P2;PMS_P1;PMS_P2;Temp;Humidity;BMP_temperature;BMP_pressure;BME280_temperature;BME280_humidity;BME280_pressure;Samples;Min_cycle;Max_cycle;Signal;HPM_P1;HPM_P2
2022/12/06 00:01:09;;;;;;;;;20.25;17.25;;;;;4.75;76.02;101877.13;5035832;28;45390;-81
2022/12/06 00:03:35;;;;;;;;;27.25;18.00;;;;;4.77;75.62;101875.47;5035712;28;45348;-81
2022/12/06 00:06:05;;;;;;;;;26.25;16.75;;;;;4.77;76.34;101865.16;5001445;28;45433;-81
2022/12/06 00:08:31;;;;;;;;;27.00;17.00;;;;;4.79;75.84;101868.59;5017955;28;45429;-81
2022/12/06 00:11:08;;;;;;;;;24.50;17.75;;;;;4.78;75.71;101856.53;5035764;28;45394;-81
2022/12/06 00:13:35;;;;;;;;;28.50;21.00;;;;;4.77;75.81;101861.69;5035979;28;45448;-81
2022/12/06 00:16:05;;;;;;;;;22.50;15.75;;;;;4.77;75.82;101866.84;5035966;28;45365;-81
2022/12/06 00:18:32;;;;;;;;;22.25;15.75;;;;;4.75;76.10;101861.66;5017449;28;46185;-81
2022/12/06 00:21:11;;;;;;;;;20.50;16.25;;;;;4.74;75.06;101864.22;5017488;28;45472;-81
2022/12/06 00:23:38;;;;;;;;;34.00;20.50;;;;;4.73;75.53;101859.91;5017939;28;45251;-81
2022/12/06 00:26:05;;;;;;;;;33.00;21.75;;;;;4.73;75.70;101847.88;5027575;28;45349;-81
2022/12/06 00:28:30;;;;;;;;;30.50;22.50;;;;;4.71;75.68;101852.16;5035347;28;45455;-81
2022/12/06 00:30:58;;;;;;;;;29.75;17.25;;;;;4.71;75.64;101841.81;5035570;28;45419;-81
2022/12/06 00:33:23;;;;;;;;;33.00;23.25;;;;;4.71;76.07;101839.25;5017594;28;45356;-81
2022/12/06 00:35:56;;;;;;;;;30.75;22.00;;;;;4.71;76.16;101838.38;5035383;28;45328;-81
2022/12/06 00:38:21;;;;;;;;;30.75;19.00;;;;;4.71;75.82;101841.81;5017635;28;45556;-80
2022/12/06 00:40:47;;;;;;;;;33.50;26.00;;;;;4.71;75.90;101839.25;5035237;28;45632;-80
2022/12/06 00:43:12;;;;;;;;;26.75;17.75;;;;;4.72;76.16;101842.69;5017699;28;45645;-81
2022/12/06 00:45:37;;;;;;;;;22.75;17.25;;;;;4.69;75.79;101838.38;5035431;28;45376;-81
2022/12/06 00:48:03;;;;;;;;;23.00;18.50;;;;;4.67;75.95;101834.03;5016965;28;46128;-81
2022/12/06 00:50:28;;;;;;;;;25.75;19.00;;;;;4.67;76.38;101834.03;5017314;28;45355;-81
2022/12/06 00:52:54;;;;;;;;;25.00;16.00;;;;;4.66;76.56;101835.72;5035444;28;45305;-81
2022/12/06 00:55:19;;;;;;;;;25.50;18.50;;;;;4.69;76.35;101833.22;5034979;28;45603;-81
2022/12/06 00:57:45;;;;;;;;;26.50;17.25;;;;;4.69;76.26;101829.78;5035050;28;46382;-81
2022/12/06 01:00:11;;;;;;;;;29.00;16.75;;;;;4.71;76.58;101833.22;5035078;28;45302;-81
2022/12/06 01:02:36;;;;;;;;;27.25;20.00;;;;;4.73;76.42;101832.38;5034887;28;45339;-81
2022/12/06 01:05:01;;;;;;;;;24.25;20.25;;;;;4.75;76.81;101829.84;5037277;28;45444;-81
2022/12/06 01:07:27;;;;;;;;;30.00;16.75;;;;;4.76;76.38;101816.97;5038601;28;45354;-81
2022/12/06 01:09:52;;;;;;;;;27.25;18.75;;;;;4.79;76.10;101823.88;5038594;28;45398;-81
2022/12/06 01:12:17;;;;;;;;;31.50;22.25;;;;;4.77;75.83;101831.59;5020706;28;45368;-81
2022/12/06 01:14:43;;;;;;;;;28.00;19.00;;;;;4.75;75.86;101833.28;5037854;28;62012;-81
2022/12/06 01:17:08;;;;;;;;;26.00;22.75;;;;;4.75;76.46;101832.41;5037354;28;62191;-80
2022/12/06 01:19:33;;;;;;;;;33.00;20.75;;;;;4.75;76.16;101833.28;5038395;28;45330;-81
2022/12/06 01:21:59;;;;;;;;;26.25;18.00;;;;;4.76;76.58;101834.16;5037793;28;63058;-81
2022/12/06 01:24:24;;;;;;;;;24.50;14.25;;;;;4.76;76.35;101837.59;5037642;28;62485;-81
2022/12/06 01:26:49;;;;;;;;;29.25;17.00;;;;;4.75;76.18;101835.00;5020183;28;53749;-81
2022/12/06 01:29:15;;;;;;;;;25.00;16.75;;;;;4.72;75.89;101830.69;5037264;28;69256;-81
2022/12/06 01:31:40;;;;;;;;;16.50;9.00;;;;;4.70;76.15;101837.53;5037230;28;63795;-80
2022/12/06 01:34:08;;;;;;;;;23.50;17.00;;;;;4.69;75.92;101832.34;5037599;28;61581;-81
2022/12/06 01:36:34;;;;;;;;;26.75;16.00;;;;;4.68;76.07;101840.91;5020033;28;46409;-81
2022/12/06 01:39:03;;;;;;;;;22.50;20.00;;;;;4.68;76.38;101828.03;5019783;28;60191;-81
2022/12/06 01:41:29;;;;;;;;;16.00;1.00;;;;;4.70;76.28;101831.47;5038156;28;45355;-81
2022/12/06 01:43:54;;;;;;;;;19.50;16.00;;;;;4.71;76.56;101826.34;5037539;28;60317;-81
2022/12/06 01:46:33;;;;;;;;;26.00;17.50;;;;;4.74;76.35;101826.41;5037689;28;46419;-81
2022/12/06 01:49:11;;;;;;;;;34.75;15.50;;;;;4.74;76.15;101823.81;5036917;28;45801;-81
2022/12/06 01:51:38;;;;;;;;;26.50;14.00;;;;;4.78;76.21;101822.16;5037990;28;45301;-81
2022/12/06 01:54:05;;;;;;;;;26.50;17.00;;;;;4.78;76.37;101830.75;5020142;28;45363;-81
2022/12/06 01:56:30;;;;;;;;;23.00;15.00;;;;;4.79;76.44;101821.28;5019696;28;46100;-81
2022/12/06 01:58:57;;;;;;;;;28.75;16.75;;;;;4.79;76.46;101829.03;5019069;28;67375;-81
2022/12/06 02:01:24;;;;;;;;;23.25;16.25;;;;;4.77;76.53;101830.72;5020171;28;45311;-81
2022/12/06 02:03:51;;;;;;;;;25.75;16.25;;;;;4.74;76.53;101831.56;5019952;28;45469;-81
2022/12/06 02:06:17;;;;;;;;;28.25;18.25;;;;;4.72;76.37;101829.78;5019890;28;46371;-81
2022/12/06 02:08:43;;;;;;;;;29.75;17.25;;;;;4.72;76.96;101830.69;5037721;28;45463;-81
2022/12/06 02:11:08;;;;;;;;;25.50;19.25;;;;;4.71;76.29;101835.81;5036801;28;66312;-81
2022/12/06 02:13:34;;;;;;;;;28.50;20.00;;;;;4.69;76.71;101840.09;5036145;28;69153;-81
2022/12/06 02:16:23;;;;;;;;;31.00;16.00;;;;;4.66;76.57;101838.31;5018154;28;59660;-81
2022/12/06 02:19:01;;;;;;;;;23.75;18.75;;;;;4.64;76.60;101835.75;5019702;28;45949;-80
2022/12/06 02:21:45;;;;;;;;;30.25;19.50;;;;;4.60;76.46;101840.81;5019948;28;45231;-81
2022/12/06 02:24:25;;;;;;;;;34.00;20.50;;;;;4.56;76.80;101839.06;5037582;28;45299;-81
2022/12/06 02:26:52;;;;;;;;;27.00;19.00;;;;;4.56;77.16;101839.91;5037478;28;45393;-81
2022/12/06 02:29:39;;;;;;;;;28.75;17.25;;;;;4.56;77.15;101836.47;5019329;28;45412;-81
2022/12/06 02:32:09;;;;;;;;;29.00;19.50;;;;;4.58;77.29;101838.22;5037298;28;45333;-81
2022/12/06 02:34:45;;;;;;;;;25.75;17.00;;;;;4.60;76.84;101843.41;5019684;28;45369;-81
2022/12/06 02:37:41;;;;;;;;;23.75;16.25;;;;;4.60;77.30;101841.69;5019431;28;45354;-81
2022/12/06 02:40:10;;;;;;;;;29.75;19.25;;;;;4.62;77.10;101845.19;5010586;28;45295;-81
2022/12/06 02:42:38;;;;;;;;;30.00;23.75;;;;;4.61;77.32;101838.28;5035441;28;45333;-81
2022/12/06 02:45:10;;;;;;;;;27.00;17.75;;;;;4.61;76.88;101834.84;5037267;28;45421;-81
2022/12/06 02:47:36;;;;;;;;;30.75;23.00;;;;;4.60;77.29;101841.69;5002481;28;46974;-81
2022/12/06 02:50:10;;;;;;;;;30.50;20.00;;;;;4.61;77.27;101830.53;5036380;28;62278;-81
2022/12/06 02:52:38;;;;;;;;;25.50;17.25;;;;;4.63;77.16;101827.97;5019140;28;45301;-81
2022/12/06 02:55:04;;;;;;;;;26.25;21.25;;;;;4.67;77.49;101823.72;5019204;28;45421;-81
2022/12/06 02:57:40;;;;;;;;;32.75;18.25;;;;;4.68;77.19;101822.88;5018528;28;46583;-81
2022/12/06 03:00:28;;;;;;;;;27.00;21.75;;;;;4.71;77.42;101828.94;5019049;28;45467;-81
2022/12/06 03:03:19;;;;;;;;;22.50;18.25;;;;;4.75;77.20;101835.84;5036959;28;45369;-81
2022/12/06 03:06:24;;;;;;;;;27.50;16.50;;;;;4.79;77.13;101836.75;5036622;28;45545;-81
2022/12/06 03:09:07;;;;;;;;;21.00;17.00;;;;;4.83;77.39;101844.56;4958595;28;45514;-80
2022/12/06 03:11:48;;;;;;;;;26.00;17.50;;;;;4.87;77.17;101836.84;4958616;28;45704;-81
2022/12/06 03:14:19;;;;;;;;;33.75;20.50;;;;;4.88;77.10;101836.03;4975306;28;45409;-81
2022/12/06 03:16:52;;;;;;;;;33.50;19.75;;;;;4.88;77.33;101830.84;4958844;28;45382;-81
2022/12/06 03:19:20;;;;;;;;;27.75;23.00;;;;;4.92;77.24;101830.94;4974692;28;47234;-81
2022/12/06 03:21:52;;;;;;;;;28.25;20.25;;;;;4.89;76.58;101832.59;4975038;28;45781;-81
2022/12/06 03:24:19;;;;;;;;;28.50;19.00;;;;;4.82;76.87;101829.94;4958809;28;45507;-81
2022/12/06 03:26:46;;;;;;;;;27.25;15.75;;;;;4.83;76.92;101838.56;4957227;28;61260;-81
2022/12/06 03:29:15;;;;;;;;;24.00;17.50;;;;;4.82;76.67;101837.66;4958541;28;47137;-81
2022/12/06 03:31:40;;;;;;;;;18.75;10.00;;;;;4.86;77.55;101830.84;4958593;28;45432;-81
2022/12/06 03:34:12;;;;;;;;;25.25;15.00;;;;;4.89;77.12;101833.47;4974958;28;45454;-81
2022/12/06 03:36:38;;;;;;;;;20.75;16.00;;;;;4.92;76.94;101825.78;4958480;28;45382;-81
2022/12/06 03:39:05;;;;;;;;;27.00;16.50;;;;;4.94;76.79;101836.09;4958229;28;46579;-81
2022/12/06 03:41:39;;;;;;;;;26.00;16.50;;;;;4.96;76.97;101831.81;4974156;28;45880;-81
2022/12/06 03:44:04;;;;;;;;;23.50;14.75;;;;;4.97;77.08;101834.41;4958521;28;45478;-81
2022/12/06 03:46:33;;;;;;;;;29.25;16.75;;;;;4.96;76.48;101840.44;5010193;28;45408;-81
2022/12/06 03:49:10;;;;;;;;;23.75;13.00;;;;;4.95;76.61;101830.94;5018198;28;45621;-81
2022/12/06 03:51:36;;;;;;;;;25.00;18.50;;;;;4.95;76.87;101830.09;5018077;28;45377;-80
2022/12/06 03:54:03;;;;;;;;;20.00;10.50;;;;;4.97;76.75;101836.13;5017562;28;66253;-81
2022/12/06 03:56:30;;;;;;;;;23.25;14.25;;;;;4.97;77.20;101824.09;5017622;28;45454;-81
2022/12/06 03:58:56;;;;;;;;;23.00;18.00;;;;;4.98;77.01;101830.13;5035871;28;46536;-81
2022/12/06 04:01:22;;;;;;;;;22.25;14.25;;;;;4.99;77.01;101835.28;5035310;28;59704;-81
2022/12/06 04:03:47;;;;;;;;;27.25;16.50;;;;;4.99;76.64;101835.28;5035959;28;45160;-81
2022/12/06 04:06:13;;;;;;;;;20.00;14.00;;;;;5.00;76.95;101825.84;5018286;28;45538;-81
2022/12/06 04:08:38;;;;;;;;;19.50;15.25;;;;;5.03;76.57;101824.19;5034919;28;72108;-81
2022/12/06 04:11:03;;;;;;;;;21.25;13.75;;;;;5.05;76.64;101826.75;5035325;28;46522;-81
2022/12/06 04:13:29;;;;;;;;;23.00;17.50;;;;;5.04;76.68;101832.78;5018228;28;45502;-81
2022/12/06 04:15:56;;;;;;;;;26.75;15.25;;;;;5.00;76.52;101837.03;5017837;28;45441;-81
2022/12/06 04:18:22;;;;;;;;;28.75;17.25;;;;;5.00;76.99;101825.84;5017865;28;46585;-81
2022/12/06 04:23:36;;;;;;;;;25.75;15.75;;;;;5.04;77.05;101830.19;5035603;28;45474;-81
2022/12/06 04:26:04;;;;;;;;;25.50;18.75;;;;;5.06;77.27;101830.22;5017806;28;45326;-81
2022/12/06 04:39:26;;;;;;;;;20.75;16.00;;;;;5.10;77.14;101827.69;5021237;28;45417;-81
2022/12/06 04:44:35;;;;;;;;;31.50;16.50;;;;;5.16;77.08;101822.59;5023943;28;45364;-81
2022/12/06 04:47:01;;;;;;;;;16.75;13.25;;;;;5.17;76.90;101820.88;5020343;28;68650;-81
2022/12/06 04:49:27;;;;;;;;;22.00;16.25;;;;;5.16;76.97;101822.59;5038943;28;45655;-81
2022/12/06 04:51:53;;;;;;;;;21.50;16.50;;;;;5.15;76.92;101822.56;5038227;28;61297;-81
2022/12/06 04:54:19;;;;;;;;;21.00;14.75;;;;;5.10;76.80;101819.94;5021002;28;45521;-81
2022/12/06 04:56:45;;;;;;;;;20.25;17.00;;;;;5.05;77.10;101819.00;5020920;28;45509;-81
2022/12/06 04:59:10;;;;;;;;;23.25;14.25;;;;;5.03;76.83;101813.84;5020055;28;71492;-81
2022/12/06 05:01:36;;;;;;;;;29.00;16.25;;;;;5.02;77.17;101812.09;5004371;28;45335;-81
2022/12/06 05:04:01;;;;;;;;;19.50;16.00;;;;;5.01;77.44;101812.97;5021018;28;45382;-81
2022/12/06 05:06:26;;;;;;;;;23.00;17.25;;;;;5.01;76.98;101810.41;5038710;28;45501;-81
2022/12/06 05:08:52;;;;;;;;;23.75;14.75;;;;;5.01;77.54;101810.41;5038361;28;46426;-81
2022/12/06 05:11:17;;;;;;;;;28.25;22.25;;;;;5.00;77.24;101806.06;5037869;28;58469;-81
2022/12/06 05:13:42;;;;;;;;;27.25;21.75;;;;;4.96;77.47;101804.31;5020526;28;45555;-82
2022/12/06 05:16:08;;;;;;;;;26.75;18.50;;;;;4.94;77.44;101807.69;5037809;28;63755;-81
2022/12/06 05:18:34;;;;;;;;;22.75;16.75;;;;;4.90;77.68;101806.78;5020341;28;56173;-81
2022/12/06 05:21:14;;;;;;;;;24.25;16.25;;;;;4.85;77.58;101800.75;5037431;28;67679;-81
2022/12/06 05:23:40;;;;;;;;;28.75;17.00;;;;;4.82;77.72;101801.56;5020449;28;45420;-81
2022/12/06 05:26:09;;;;;;;;;39.00;17.75;;;;;4.80;78.19;101798.09;5020568;28;45540;-81
2022/12/06 05:28:34;;;;;;;;;24.50;14.25;;;;;4.78;77.98;101804.09;5020325;28;46754;-81
2022/12/06 05:31:00;;;;;;;;;18.75;16.50;;;;;4.76;78.13;101806.66;5038462;28;45374;-81
2022/12/06 05:33:25;;;;;;;;;30.50;17.00;;;;;4.76;78.25;101801.50;5037572;28;62947;-81
2022/12/06 05:35:51;;;;;;;;;34.75;20.75;;;;;4.76;78.49;101806.66;5019321;28;69165;-82
2022/12/06 05:38:17;;;;;;;;;27.50;19.25;;;;;4.75;78.50;101799.75;5037736;28;45427;-81
2022/12/06 05:40:42;;;;;;;;;25.50;16.50;;;;;4.73;78.42;101796.28;5037905;28;45278;-81
2022/12/06 05:43:08;;;;;;;;;34.25;20.00;;;;;4.73;78.83;101792.84;5038185;28;45389;-81
2022/12/06 05:45:35;;;;;;;;;24.00;16.00;;;;;4.72;78.60;101793.69;5036888;28;45444;-81
2022/12/06 05:48:01;;;;;;;;;29.50;20.00;;;;;4.75;78.82;101793.72;5020153;28;46879;-81
2022/12/06 05:50:26;;;;;;;;;19.75;16.75;;;;;4.80;78.77;101792.06;5036680;28;66202;-81
2022/12/06 05:52:55;;;;;;;;;18.75;13.00;;;;;4.82;78.68;101792.97;5038048;28;45362;-80
2022/12/06 05:55:20;;;;;;;;;30.25;17.00;;;;;4.80;78.78;101787.78;5037842;28;45314;-81
2022/12/06 05:57:46;;;;;;;;;40.25;19.25;;;;;4.82;79.02;101798.13;5019398;28;61319;-80
2022/12/06 06:00:12;;;;;;;;;23.00;17.00;;;;;4.84;78.56;101789.53;5019407;28;61089;-81
2022/12/06 06:02:37;;;;;;;;;26.25;16.50;;;;;4.88;78.87;101792.16;5020037;28;45478;-81
2022/12/06 06:05:03;;;;;;;;;30.00;19.50;;;;;4.90;78.50;101795.63;5036498;28;69708;-81
2022/12/06 06:07:28;;;;;;;;;28.25;20.00;;;;;4.91;78.62;101793.06;5037611;28;47038;-81
2022/12/06 06:09:54;;;;;;;;;27.75;22.50;;;;;4.89;78.57;101799.06;5036947;28;68314;-81
2022/12/06 06:12:19;;;;;;;;;25.50;17.75;;;;;4.88;78.30;101793.00;5019969;28;45422;-81
2022/12/06 06:14:45;;;;;;;;;25.75;20.25;;;;;4.88;78.70;101793.00;5036680;28;67124;-81
2022/12/06 06:17:10;;;;;;;;;33.25;17.25;;;;;4.88;78.73;101797.31;5036409;28;75056;-81
2022/12/06 06:19:35;;;;;;;;;31.50;22.00;;;;;4.89;78.41;101791.31;5037037;28;45424;-81
2022/12/06 06:22:00;;;;;;;;;30.75;18.00;;;;;4.89;78.82;101801.66;5036936;28;57392;-81
2022/12/06 06:24:26;;;;;;;;;24.75;16.00;;;;;4.88;78.66;101800.75;5036794;28;66049;-81
2022/12/06 06:26:51;;;;;;;;;32.25;23.50;;;;;4.90;78.25;101809.38;5018720;28;62622;-81
2022/12/06 06:29:16;;;;;;;;;38.75;23.50;;;;;4.91;78.65;101805.09;5036444;28;66027;-81
2022/12/06 06:31:42;;;;;;;;;27.25;18.25;;;;;4.91;78.66;101802.53;5019087;28;56415;-81
2022/12/06 06:34:07;;;;;;;;;29.50;21.25;;;;;4.94;78.54;101813.75;5018547;28;61408;-81
2022/12/06 06:36:32;;;;;;;;;30.00;21.25;;;;;4.95;78.29;101814.59;5036176;28;74033;-80
2022/12/06 06:38:58;;;;;;;;;34.75;19.25;;;;;4.93;78.54;101808.56;5036523;28;65443;-80
2022/12/06 06:41:23;;;;;;;;;28.75;20.00;;;;;4.89;78.64;101807.66;5036742;28;55718;-81
2022/12/06 06:43:49;;;;;;;;;25.75;20.00;;;;;4.94;78.61;101811.16;5037244;28;45373;-84
2022/12/06 06:46:14;;;;;;;;;29.75;23.25;;;;;5.00;78.59;101818.97;5002973;28;71788;-85
2022/12/06 06:48:39;;;;;;;;;39.50;27.25;;;;;5.02;78.51;101813.84;5037805;28;45412;-84
2022/12/06 06:51:08;;;;;;;;;33.00;25.00;;;;;5.05;78.23;101819.00;5037172;28;45294;-84
2022/12/06 06:53:33;;;;;;;;;31.50;21.50;;;;;5.06;78.29;101825.06;5037186;28;45399;-83
2022/12/06 06:55:58;;;;;;;;;25.75;21.25;;;;;5.06;78.35;101825.06;5036123;28;60825;-84
2022/12/06 06:58:24;;;;;;;;;38.50;23.25;;;;;5.06;78.63;101823.34;5018829;28;51524;-84
2022/12/06 07:00:54;;;;;;;;;30.25;19.00;;;;;5.06;78.46;101823.34;5036887;28;45382;-84
2022/12/06 07:03:20;;;;;;;;;30.25;19.25;;;;;5.07;78.43;101824.19;5035899;28;45591;-84
2022/12/06 07:05:56;;;;;;;;;33.25;20.00;;;;;5.02;78.07;101826.72;5036670;28;45263;-84
2022/12/06 07:08:23;;;;;;;;;28.25;22.50;;;;;4.94;78.24;101824.06;5037119;28;45440;-84
2022/12/06 07:10:49;;;;;;;;;35.00;27.25;;;;;4.91;78.89;101821.44;5019219;28;45314;-84
2022/12/06 07:13:15;;;;;;;;;33.25;19.75;;;;;4.95;78.65;101819.75;5036712;28;45286;-87
2022/12/06 07:15:41;;;;;;;;;36.00;23.75;;;;;4.95;78.66;101819.75;5018925;28;46166;-85
2022/12/06 07:18:09;;;;;;;;;34.50;23.25;;;;;4.97;78.62;101813.75;5036392;28;45340;-84
2022/12/06 07:20:34;;;;;;;;;42.75;31.00;;;;;4.99;78.69;101813.78;5036628;28;45230;-85
2022/12/06 07:23:00;;;;;;;;;38.00;25.75;;;;;5.02;78.94;101812.09;5036445;28;45372;-86
2022/12/06 07:25:26;;;;;;;;;33.50;24.75;;;;;5.06;78.60;101815.59;5018698;28;46218;-86
2022/12/06 07:27:51;;;;;;;;;26.75;21.75;;;;;5.07;78.76;101822.50;5018638;28;45401;-85
2022/12/06 07:30:17;;;;;;;;;29.75;19.75;;;;;5.02;78.30;101819.00;5036490;28;45396;-86
2022/12/06 07:32:42;;;;;;;;;29.50;20.25;;;;;5.01;78.39;101819.81;5018556;28;45397;-86
2022/12/06 07:35:08;;;;;;;;;25.25;20.00;;;;;4.94;78.61;101813.75;5036292;28;46619;-85
2022/12/06 07:37:35;;;;;;;;;29.50;21.00;;;;;4.88;78.44;101821.41;5036298;28;45309;-86
2022/12/06 07:40:00;;;;;;;;;37.75;27.25;;;;;4.82;79.03;101816.16;5018618;28;45365;-86
2022/12/06 07:45:12;;;;;;;;;27.00;14.50;;;;;4.82;79.43;101816.16;5013932;28;45851;-86
2022/12/06 07:47:41;;;;;;;;;44.25;29.50;;;;;4.88;79.31;101810.22;4998326;28;45465;-87
2022/12/06 07:50:08;;;;;;;;;35.50;26.25;;;;;4.94;79.36;101816.31;5031312;28;45389;-87
2022/12/06 07:52:35;;;;;;;;;41.00;30.00;;;;;4.96;79.08;101808.56;5018363;28;45367;-87
2022/12/06 07:55:02;;;;;;;;;37.25;27.00;;;;;5.01;79.33;101809.50;5051954;28;45345;-87
2022/12/06 07:57:28;;;;;;;;;44.75;34.50;;;;;5.05;78.80;101813.84;5019528;28;45402;-86
2022/12/06 07:59:54;;;;;;;;;32.25;24.50;;;;;5.07;78.80;101817.34;5006922;28;45657;-86
2022/12/06 08:02:22;;;;;;;;;24.50;18.75;;;;;5.07;79.00;101819.91;5018179;28;45419;-86
2022/12/06 08:04:47;;;;;;;;;25.00;19.00;;;;;5.07;78.91;101816.44;5033900;28;47335;-87
2022/12/06 08:07:13;;;;;;;;;33.25;26.25;;;;;5.10;78.98;101813.91;4998223;28;45413;-85
2022/12/06 08:09:39;;;;;;;;;48.00;32.25;;;;;5.10;78.93;101822.50;4998494;28;45958;-86
2022/12/06 08:12:05;;;;;;;;;38.25;29.25;;;;;5.10;78.93;101830.25;5016237;28;45378;-86
2022/12/06 08:14:30;;;;;;;;;47.25;25.50;;;;;5.12;78.62;101830.28;5010552;28;45486;-86
2022/12/06 08:16:56;;;;;;;;;38.75;30.50;;;;;5.13;78.80;101837.19;5035559;28;45318;-86
2022/12/06 08:19:21;;;;;;;;;38.00;26.75;;;;;5.12;79.14;101841.47;5029403;28;45566;-85
2022/12/06 08:21:47;;;;;;;;;21.25;18.25;;;;;5.11;78.92;101844.00;5030178;28;45380;-83
2022/12/06 08:24:13;;;;;;;;;36.25;26.50;;;;;5.11;78.82;101846.59;5027685;28;45492;-85
2022/12/06 08:26:38;;;;;;;;;42.50;25.00;;;;;5.11;78.80;101844.91;5035309;28;45471;-86
2022/12/06 08:29:04;;;;;;;;;56.25;35.50;;;;;5.14;78.97;101850.09;5003239;28;47315;-86
2022/12/06 08:31:30;;;;;;;;;36.25;26.00;;;;;5.16;79.14;101847.53;5015187;28;45399;-85
2022/12/06 08:33:56;;;;;;;;;33.25;26.25;;;;;5.14;79.23;101851.81;5029979;28;46108;-84
2022/12/06 08:36:22;;;;;;;;;41.50;30.25;;;;;5.15;78.89;101861.28;5035460;28;45887;-84
2022/12/06 08:38:49;;;;;;;;;41.75;33.75;;;;;5.13;79.04;101861.28;5017747;28;45355;-84
2022/12/06 08:44:00;;;;;;;;;30.25;21.00;;;;;5.15;78.89;101869.03;5035392;28;45773;-85
2022/12/06 08:46:26;;;;;;;;;31.00;25.75;;;;;5.12;78.93;101869.84;5035111;28;45479;-85
2022/12/06 08:48:51;;;;;;;;;38.50;29.00;;;;;5.05;79.05;101878.38;5035463;28;45417;-85
2022/12/06 08:51:17;;;;;;;;;23.25;19.00;;;;;4.99;79.22;101879.16;5017771;28;45394;-82
2022/12/06 08:53:42;;;;;;;;;35.00;30.25;;;;;4.99;79.64;101883.47;5035403;28;45414;-82
2022/12/06 08:56:08;;;;;;;;;35.25;23.50;;;;;5.03;79.77;101880.94;5034617;28;58373;-82
2022/12/06 08:58:33;;;;;;;;;38.50;23.75;;;;;5.07;79.62;101876.69;5001146;28;45352;-82
2022/12/06 09:00:59;;;;;;;;;43.00;27.75;;;;;5.08;79.97;101877.56;5016670;28;56546;-82
2022/12/06 09:03:24;;;;;;;;;31.00;19.75;;;;;5.11;79.83;101875.00;5017352;28;46041;-82
2022/12/06 09:05:49;;;;;;;;;35.50;27.25;;;;;5.15;79.46;101875.06;5000643;28;45360;-82
2022/12/06 09:08:15;;;;;;;;;53.00;28.75;;;;;5.17;79.40;101875.94;5014770;28;62856;-85
2022/12/06 09:10:41;;;;;;;;;33.50;22.75;;;;;5.13;79.15;101888.81;5027311;28;45391;-84
2022/12/06 09:13:07;;;;;;;;;32.25;23.00;;;;;5.03;79.38;101880.06;4997159;28;47066;-84
2022/12/06 09:15:32;;;;;;;;;28.50;17.75;;;;;4.96;79.63;101886.88;5017531;28;45614;-84
2022/12/06 09:17:57;;;;;;;;;27.00;20.00;;;;;4.89;79.66;101882.47;5010505;28;63283;-80
2022/12/06 09:20:23;;;;;;;;;24.00;16.75;;;;;4.85;80.06;101891.91;5026996;28;60959;-81
2022/12/06 09:22:48;;;;;;;;;39.75;23.75;;;;;4.87;79.97;101896.19;4999394;28;45534;-82
2022/12/06 09:25:14;;;;;;;;;28.25;24.25;;;;;4.82;79.95;101894.44;5016653;28;59890;-82
2022/12/06 09:27:39;;;;;;;;;31.75;21.25;;;;;4.79;80.56;101885.78;5037991;28;45348;-82
2022/12/06 09:30:05;;;;;;;;;34.00;25.50;;;;;4.81;80.44;101895.28;5035525;28;45553;-83
2022/12/06 09:32:31;;;;;;;;;25.50;19.75;;;;;4.83;80.30;101897.91;5014104;28;46368;-83
2022/12/06 09:34:56;;;;;;;;;33.00;29.75;;;;;4.86;80.53;101892.75;5019324;28;45437;-83
2022/12/06 09:37:21;;;;;;;;;36.75;26.00;;;;;4.83;80.48;101891.00;5007968;28;45504;-83
2022/12/06 09:39:54;;;;;;;;;38.25;21.50;;;;;4.83;80.54;101896.16;5012861;28;45632;-83
2022/12/06 09:42:44;;;;;;;;;42.25;34.50;;;;;4.84;80.70;101889.28;5013205;28;45399;-83
2022/12/06 09:45:28;;;;;;;;;40.00;26.75;;;;;4.85;81.04;101897.06;5019536;28;45404;-83
2022/12/06 09:48:05;;;;;;;;;46.00;26.75;;;;;4.89;80.69;101900.53;5034217;28;45371;-83
2022/12/06 09:50:49;;;;;;;;;30.00;19.00;;;;;4.92;80.57;101908.34;5033537;28;45548;-83
2022/12/06 09:53:14;;;;;;;;;42.50;22.25;;;;;4.95;80.77;101905.78;5030681;28;45612;-83
2022/12/06 09:55:46;;;;;;;;;35.67;27.00;;;;;4.99;80.96;101902.38;5023610;28;45345;-84
2022/12/06 09:58:14;;;;;;;;;21.00;17.00;;;;;5.08;80.44;101913.69;5012253;28;45293;-84
2022/12/06 10:00:46;;;;;;;;;41.50;29.50;;;;;5.07;80.66;101907.66;5037298;28;45362;-83
2022/12/06 10:03:47;;;;;;;;;38.50;26.25;;;;;5.03;80.64;101906.75;5005053;28;46252;-83
2022/12/06 10:06:16;;;;;;;;;37.25;27.50;;;;;5.01;81.15;101908.47;4949834;28;45780;-84
2022/12/06 10:09:00;;;;;;;;;37.25;27.25;;;;;5.02;80.98;101911.91;4959480;28;45878;-83
2022/12/06 10:11:50;;;;;;;;;35.25;29.25;;;;;4.99;81.34;101904.09;4974738;28;45414;-84
2022/12/06 10:14:43;;;;;;;;;40.25;30.50;;;;;5.03;81.07;101901.59;4974452;28;45371;-82
2022/12/06 10:17:51;;;;;;;;;45.75;29.75;;;;;5.02;81.19;101902.44;4960561;28;45398;-83
2022/12/06 10:20:41;;;;;;;;;35.75;24.25;;;;;5.00;81.46;101909.28;4916375;28;45570;-83
2022/12/06 10:23:28;;;;;;;;;38.50;24.50;;;;;4.98;81.28;101904.97;4916705;28;45722;-83
2022/12/06 10:26:12;;;;;;;;;35.50;28.75;;;;;5.02;81.54;101899.84;4916152;28;46927;-82
2022/12/06 10:28:54;;;;;;;;;32.25;21.25;;;;;5.04;81.13;101895.56;4895519;28;45527;-82
2022/12/06 10:31:26;;;;;;;;;44.00;30.75;;;;;5.04;81.52;101903.31;4907061;28;45530;-83
2022/12/06 10:33:54;;;;;;;;;38.25;28.00;;;;;5.00;81.44;101904.13;4910721;28;45384;-81
2022/12/06 10:36:48;;;;;;;;;32.25;24.25;;;;;4.98;81.46;101903.25;4900392;28;47645;-83
2022/12/06 10:39:21;;;;;;;;;41.25;28.00;;;;;4.98;81.60;101907.56;4917836;28;46240;-82
2022/12/06 10:42:01;;;;;;;;;33.75;24.25;;;;;4.98;81.88;101908.41;4955253;28;45578;-83
2022/12/06 10:44:50;;;;;;;;;16.00;1.00;;;;;4.97;82.02;101911.81;4945313;28;45538;-82
2022/12/06 10:47:26;;;;;;;;;36.25;26.75;;;;;4.96;82.02;101904.06;4940326;28;45539;-83
2022/12/06 10:50:14;;;;;;;;;37.25;27.25;;;;;4.94;82.30;101905.75;4955318;28;45442;-83
2022/12/06 10:52:47;;;;;;;;;43.25;26.00;;;;;5.01;82.42;101903.28;4951887;28;45435;-83
2022/12/06 10:55:25;;;;;;;;;19.00;17.00;;;;;5.02;81.86;101899.84;4938779;28;45603;-83
2022/12/06 10:58:08;;;;;;;;;46.00;28.50;;;;;5.08;82.08;101900.78;5013895;28;45823;-83
2022/12/06 11:00:38;;;;;;;;;40.00;29.75;;;;;5.16;82.09;101905.19;5016194;28;45379;-82
2022/12/06 11:03:19;;;;;;;;;32.50;24.75;;;;;5.26;81.70;101900.16;4991483;28;45400;-83
2022/12/06 11:05:49;;;;;;;;;35.25;26.75;;;;;5.31;81.99;101896.75;4996070;28;45294;-82
2022/12/06 11:08:19;;;;;;;;;44.50;34.75;;;;;5.31;81.12;101894.19;4995766;28;48377;-84
2022/12/06 11:10:46;;;;;;;;;44.25;28.00;;;;;5.28;81.64;101893.28;4992845;28;45895;-84
2022/12/06 11:13:29;;;;;;;;;34.25;29.00;;;;;5.21;81.99;101890.59;5014401;28;45556;-84
2022/12/06 11:16:10;;;;;;;;;39.50;31.50;;;;;5.19;81.73;101884.56;4996673;28;45482;-83
2022/12/06 11:18:35;;;;;;;;;42.00;31.00;;;;;5.18;82.17;101882.84;5011129;28;46329;-83
2022/12/06 11:21:11;;;;;;;;;32.50;23.00;;;;;5.15;82.33;101882.81;5009289;28;45503;-83
2022/12/06 11:24:02;;;;;;;;;42.50;31.25;;;;;5.12;82.50;101889.63;5018246;28;45485;-83
2022/12/06 11:26:35;;;;;;;;;38.50;25.50;;;;;5.12;82.32;101880.16;5016795;28;45441;-83
2022/12/06 11:29:05;;;;;;;;;37.50;27.25;;;;;5.18;82.58;101869.06;5015525;28;47123;-82
2022/12/06 11:31:39;;;;;;;;;33.00;28.00;;;;;5.17;82.52;101868.19;5009452;28;47800;-83
2022/12/06 11:34:21;;;;;;;;;46.50;33.25;;;;;5.18;82.64;101875.09;5014793;28;45460;-83
2022/12/06 11:36:49;;;;;;;;;47.50;32.00;;;;;5.19;82.21;101869.06;5015388;28;45616;-83
2022/12/06 11:39:15;;;;;;;;;55.25;31.00;;;;;5.20;82.41;101865.66;5025587;28;46136;-83
2022/12/06 11:41:42;;;;;;;;;42.75;30.75;;;;;5.23;82.71;101860.50;5017199;28;45461;-83
2022/12/06 11:44:13;;;;;;;;;37.00;27.50;;;;;5.27;82.37;101861.41;5017846;28;45275;-83
2022/12/06 11:46:38;;;;;;;;;42.75;31.50;;;;;5.28;82.17;101854.56;5017314;28;45394;-84
2022/12/06 11:49:15;;;;;;;;;48.75;31.00;;;;;5.29;82.04;101851.09;5012161;28;45731;-83